sensor_id;sensor_type;location;lat;lon;timestamp;temperature;humidity
11540;DHT22;5826;54.756;9.192;2022-09-09T00:04:28;15.30;99.90
11540;DHT22;5826;54.756;9.192;2022-09-09T00:07:18;15.40;99.90
11540;DHT22;5826;54.756;9.192;2022-09-09T00:10:05;15.30;99.90
11540;DHT22;5826;54.756;9.192;2022-09-09T00:13:02;15.30;99.90
11540;DHT22;5826;54.756;9.192;2022-09-09T00:15:49;15.30;99.90
11540;DHT22;5826;54.756;9.192;2022-09-09T00:18:50;15.30;99.90
11540;DHT22;5826;54.756;9.192;2022-09-09T00:21:17;15.30;99.90
11540;DHT22;5826;54.756;9.192;2022-09-09T00:31:32;15.30;99.90
11540;DHT22;5826;54.756;9.192;2022-09-09T00:34:09;15.30;99.90
11540;DHT22;5826;54.756;9.192;2022-09-09T00:36:37;15.30;99.90
11540;DHT22;5826;54.756;9.192;2022-09-09T00:39:04;15.80;99.90
11540;DHT22;5826;54.756;9.192;2022-09-09T00:41:56;15.80;99.90
11540;DHT22;5826;54.756;9.192;2022-09-09T00:44:31;15.30;99.90
11540;DHT22;5826;54.756;9.192;2022-09-09T00:58:36;15.30;99.90
11540;DHT22;5826;54.756;9.192;2022-09-09T01:01:07;15.50;99.90
11540;DHT22;5826;54.756;9.192;2022-09-09T01:11:02;15.40;99.90
11540;DHT22;5826;54.756;9.192;2022-09-09T01:13:35;15.30;99.90
11540;DHT22;5826;54.756;9.192;2022-09-09T01:16:03;15.40;99.90
11540;DHT22;5826;54.756;9.192;2022-09-09T01:18:37;15.30;99.90
11540;DHT22;5826;54.756;9.192;2022-09-09T01:21:26;15.40;99.90
11540;DHT22;5826;54.756;9.192;2022-09-09T01:24:19;15.30;99.90
11540;DHT22;5826;54.756;9.192;2022-09-09T01:26:46;15.30;99.90
11540;DHT22;5826;54.756;9.192;2022-09-09T01:29:15;15.30;99.90
11540;DHT22;5826;54.756;9.192;2022-09-09T01:31:57;15.30;99.90
11540;DHT22;5826;54.756;9.192;2022-09-09T01:34:30;15.40;99.90
11540;DHT22;5826;54.756;9.192;2022-09-09T01:37:03;15.40;99.90
11540;DHT22;5826;54.756;9.192;2022-09-09T01:39:31;15.30;99.90
11540;DHT22;5826;54.756;9.192;2022-09-09T01:41:58;15.30;99.90
11540;DHT22;5826;54.756;9.192;2022-09-09T01:44:24;15.50;99.90
11540;DHT22;5826;54.756;9.192;2022-09-09T01:46:51;15.40;99.90
11540;DHT22;5826;54.756;9.192;2022-09-09T01:49:17;15.40;99.90
11540;DHT22;5826;54.756;9.192;2022-09-09T01:51:43;15.40;99.90
11540;DHT22;5826;54.756;9.192;2022-09-09T01:54:10;15.30;99.90
11540;DHT22;5826;54.756;9.192;2022-09-09T02:02:10;15.40;99.90
11540;DHT22;5826;54.756;9.192;2022-09-09T02:04:44;15.40;99.90
11540;DHT22;5826;54.756;9.192;2022-09-09T02:07:19;15.40;99.90
11540;DHT22;5826;54.756;9.192;2022-09-09T02:10:00;15.40;99.90
11540;DHT22;5826;54.756;9.192;2022-09-09T02:12:27;15.70;99.90
11540;DHT22;5826;54.756;9.192;2022-09-09T02:15:04;15.50;99.90
11540;DHT22;5826;54.756;9.192;2022-09-09T02:17:34;15.40;99.90
11540;DHT22;5826;54.756;9.192;2022-09-09T02:20:07;15.40;99.90
11540;DHT22;5826;54.756;9.192;2022-09-09T02:22:35;15.40;99.90
11540;DHT22;5826;54.756;9.192;2022-09-09T02:25:06;15.40;99.90
11540;DHT22;5826;54.756;9.192;2022-09-09T02:27:33;15.40;99.90
11540;DHT22;5826;54.756;9.192;2022-09-09T02:29:59;15.40;99.90
11540;DHT22;5826;54.756;9.192;2022-09-09T02:32:28;15.40;99.90
11540;DHT22;5826;54.756;9.192;2022-09-09T02:35:07;15.40;99.90
11540;DHT22;5826;54.756;9.192;2022-09-09T02:37:38;15.40;99.90
11540;DHT22;5826;54.756;9.192;2022-09-09T02:40:09;15.50;99.90
11540;DHT22;5826;54.756;9.192;2022-09-09T02:42:44;15.50;99.90
11540;DHT22;5826;54.756;9.192;2022-09-09T02:45:11;15.50;99.90
11540;DHT22;5826;54.756;9.192;2022-09-09T02:47:38;16.00;99.90
11540;DHT22;5826;54.756;9.192;2022-09-09T02:50:17;15.50;99.90
11540;DHT22;5826;54.756;9.192;2022-09-09T02:55:39;15.50;99.90
11540;DHT22;5826;54.756;9.192;2022-09-09T02:58:10;15.50;99.90
11540;DHT22;5826;54.756;9.192;2022-09-09T03:00:38;15.50;99.90
11540;DHT22;5826;54.756;9.192;2022-09-09T03:03:06;15.50;99.90
11540;DHT22;5826;54.756;9.192;2022-09-09T03:05:31;15.50;99.90
11540;DHT22;5826;54.756;9.192;2022-09-09T03:07:57;15.50;99.90
11540;DHT22;5826;54.756;9.192;2022-09-09T03:10:23;15.50;99.90
11540;DHT22;5826;54.756;9.192;2022-09-09T03:12:49;15.50;99.90
11540;DHT22;5826;54.756;9.192;2022-09-09T03:15:15;15.50;99.90
11540;DHT22;5826;54.756;9.192;2022-09-09T03:17:41;15.50;99.90
11540;DHT22;5826;54.756;9.192;2022-09-09T03:20:07;15.50;99.90
11540;DHT22;5826;54.756;9.192;2022-09-09T03:22:34;15.50;99.90
11540;DHT22;5826;54.756;9.192;2022-09-09T03:24:59;15.50;99.90
11540;DHT22;5826;54.756;9.192;2022-09-09T03:27:25;15.50;99.90
11540;DHT22;5826;54.756;9.192;2022-09-09T03:29:51;15.60;99.90
11540;DHT22;5826;54.756;9.192;2022-09-09T03:32:17;16.30;99.90
11540;DHT22;5826;54.756;9.192;2022-09-09T03:34:43;15.50;99.90
11540;DHT22;5826;54.756;9.192;2022-09-09T03:37:09;15.70;99.90
11540;DHT22;5826;54.756;9.192;2022-09-09T03:39:34;15.60;99.90
11540;DHT22;5826;54.756;9.192;2022-09-09T03:42:00;15.60;99.90
11540;DHT22;5826;54.756;9.192;2022-09-09T03:44:29;15.60;99.90
11540;DHT22;5826;54.756;9.192;2022-09-09T03:46:55;15.60;99.90
11540;DHT22;5826;54.756;9.192;2022-09-09T03:49:20;15.60;99.90
11540;DHT22;5826;54.756;9.192;2022-09-09T03:51:47;15.60;99.90
11540;DHT22;5826;54.756;9.192;2022-09-09T03:54:12;15.60;99.90
11540;DHT22;5826;54.756;9.192;2022-09-09T03:56:38;15.60;99.90
11540;DHT22;5826;54.756;9.192;2022-09-09T03:59:04;15.60;99.90
11540;DHT22;5826;54.756;9.192;2022-09-09T04:01:29;15.60;99.90
11540;DHT22;5826;54.756;9.192;2022-09-09T04:03:55;15.60;99.90
11540;DHT22;5826;54.756;9.192;2022-09-09T04:06:24;15.60;99.90
11540;DHT22;5826;54.756;9.192;2022-09-09T04:08:49;15.60;99.90
11540;DHT22;5826;54.756;9.192;2022-09-09T04:11:15;15.60;99.90
11540;DHT22;5826;54.756;9.192;2022-09-09T04:13:41;15.60;99.90
11540;DHT22;5826;54.756;9.192;2022-09-09T04:16:08;15.70;99.90
11540;DHT22;5826;54.756;9.192;2022-09-09T04:18:34;15.60;99.90
11540;DHT22;5826;54.756;9.192;2022-09-09T04:21:00;15.70;99.90
11540;DHT22;5826;54.756;9.192;2022-09-09T04:23:27;15.70;99.90
11540;DHT22;5826;54.756;9.192;2022-09-09T04:25:57;15.70;99.90
11540;DHT22;5826;54.756;9.192;2022-09-09T04:28:26;15.70;99.90
11540;DHT22;5826;54.756;9.192;2022-09-09T04:30:52;15.70;99.90
11540;DHT22;5826;54.756;9.192;2022-09-09T04:33:18;15.70;99.90
11540;DHT22;5826;54.756;9.192;2022-09-09T04:35:48;15.70;99.90
11540;DHT22;5826;54.756;9.192;2022-09-09T04:38:15;15.70;99.90
11540;DHT22;5826;54.756;9.192;2022-09-09T04:40:43;15.80;99.90
11540;DHT22;5826;54.756;9.192;2022-09-09T04:43:09;15.80;99.90
11540;DHT22;5826;54.756;9.192;2022-09-09T04:45:35;15.80;99.90
11540;DHT22;5826;54.756;9.192;2022-09-09T04:48:00;15.80;99.90
11540;DHT22;5826;54.756;9.192;2022-09-09T04:50:27;15.80;99.90
11540;DHT22;5826;54.756;9.192;2022-09-09T04:52:53;15.80;99.90
11540;DHT22;5826;54.756;9.192;2022-09-09T04:55:19;15.80;99.90
11540;DHT22;5826;54.756;9.192;2022-09-09T04:57:45;15.80;99.90
11540;DHT22;5826;54.756;9.192;2022-09-09T05:00:11;15.80;99.90
11540;DHT22;5826;54.756;9.192;2022-09-09T05:02:38;15.80;99.90
11540;DHT22;5826;54.756;9.192;2022-09-09T05:05:04;15.80;99.90
11540;DHT22;5826;54.756;9.192;2022-09-09T05:07:30;15.80;99.90
11540;DHT22;5826;54.756;9.192;2022-09-09T05:09:56;15.80;99.90
11540;DHT22;5826;54.756;9.192;2022-09-09T05:12:22;15.80;99.90
11540;DHT22;5826;54.756;9.192;2022-09-09T05:14:49;15.80;99.90
11540;DHT22;5826;54.756;9.192;2022-09-09T05:17:15;15.80;99.90
11540;DHT22;5826;54.756;9.192;2022-09-09T05:19:41;15.80;99.90
11540;DHT22;5826;54.756;9.192;2022-09-09T05:22:07;15.80;99.90
11540;DHT22;5826;54.756;9.192;2022-09-09T05:24:33;15.80;99.90
11540;DHT22;5826;54.756;9.192;2022-09-09T05:26:59;15.80;99.90
11540;DHT22;5826;54.756;9.192;2022-09-09T05:29:26;15.80;99.90
11540;DHT22;5826;54.756;9.192;2022-09-09T05:31:52;15.80;99.90
11540;DHT22;5826;54.756;9.192;2022-09-09T05:34:18;15.80;99.90
11540;DHT22;5826;54.756;9.192;2022-09-09T05:36:43;15.80;99.90
11540;DHT22;5826;54.756;9.192;2022-09-09T05:39:09;15.80;99.90
11540;DHT22;5826;54.756;9.192;2022-09-09T05:41:34;15.80;99.90
11540;DHT22;5826;54.756;9.192;2022-09-09T05:44:01;15.80;99.90
11540;DHT22;5826;54.756;9.192;2022-09-09T05:46:27;15.80;99.90
11540;DHT22;5826;54.756;9.192;2022-09-09T05:48:53;15.80;99.90
11540;DHT22;5826;54.756;9.192;2022-09-09T05:51:21;15.80;99.90
11540;DHT22;5826;54.756;9.192;2022-09-09T05:53:48;15.80;99.90
11540;DHT22;5826;54.756;9.192;2022-09-09T05:56:25;15.80;99.90
11540;DHT22;5826;54.756;9.192;2022-09-09T05:58:51;15.80;99.90
11540;DHT22;5826;54.756;9.192;2022-09-09T06:01:21;15.80;99.90
11540;DHT22;5826;54.756;9.192;2022-09-09T06:03:48;15.80;99.90
11540;DHT22;5826;54.756;9.192;2022-09-09T06:06:16;15.80;99.90
11540;DHT22;5826;54.756;9.192;2022-09-09T06:08:44;15.80;99.90
11540;DHT22;5826;54.756;9.192;2022-09-09T06:11:21;15.80;99.90
11540;DHT22;5826;54.756;9.192;2022-09-09T06:13:48;15.80;99.90
11540;DHT22;5826;54.756;9.192;2022-09-09T06:16:18;15.80;99.90
11540;DHT22;5826;54.756;9.192;2022-09-09T06:18:45;15.80;99.90
11540;DHT22;5826;54.756;9.192;2022-09-09T06:21:18;15.80;99.90
11540;DHT22;5826;54.756;9.192;2022-09-09T06:23:45;15.80;99.90
11540;DHT22;5826;54.756;9.192;2022-09-09T06:26:19;15.80;99.90
11540;DHT22;5826;54.756;9.192;2022-09-09T06:28:46;15.80;99.90
11540;DHT22;5826;54.756;9.192;2022-09-09T06:31:15;15.80;99.90
11540;DHT22;5826;54.756;9.192;2022-09-09T06:33:42;15.80;99.90
11540;DHT22;5826;54.756;9.192;2022-09-09T06:36:16;15.80;99.90
11540;DHT22;5826;54.756;9.192;2022-09-09T06:38:42;15.90;99.90
11540;DHT22;5826;54.756;9.192;2022-09-09T06:41:09;15.90;99.90
11540;DHT22;5826;54.756;9.192;2022-09-09T06:43:35;15.90;99.90
11540;DHT22;5826;54.756;9.192;2022-09-09T06:46:06;15.90;99.90
11540;DHT22;5826;54.756;9.192;2022-09-09T06:48:33;15.90;99.90
11540;DHT22;5826;54.756;9.192;2022-09-09T06:51:09;15.80;99.90
11540;DHT22;5826;54.756;9.192;2022-09-09T06:53:36;15.90;99.90
11540;DHT22;5826;54.756;9.192;2022-09-09T06:58:40;15.90;99.90
11540;DHT22;5826;54.756;9.192;2022-09-09T07:01:08;16.00;99.90
11540;DHT22;5826;54.756;9.192;2022-09-09T07:03:35;16.00;99.90
11540;DHT22;5826;54.756;9.192;2022-09-09T07:06:00;16.00;99.90
11540;DHT22;5826;54.756;9.192;2022-09-09T07:08:26;16.00;99.90
11540;DHT22;5826;54.756;9.192;2022-09-09T07:10:52;16.00;99.90
11540;DHT22;5826;54.756;9.192;2022-09-09T07:13:25;16.00;99.90
11540;DHT22;5826;54.756;9.192;2022-09-09T07:15:52;16.00;99.90
11540;DHT22;5826;54.756;9.192;2022-09-09T07:18:18;16.00;99.90
11540;DHT22;5826;54.756;9.192;2022-09-09T07:20:52;16.00;99.90
11540;DHT22;5826;54.756;9.192;2022-09-09T07:23:18;16.00;99.90
11540;DHT22;5826;54.756;9.192;2022-09-09T07:25:47;16.10;99.90
11540;DHT22;5826;54.756;9.192;2022-09-09T07:28:13;16.10;99.90
11540;DHT22;5826;54.756;9.192;2022-09-09T07:30:38;16.20;99.90
11540;DHT22;5826;54.756;9.192;2022-09-09T07:33:05;16.20;99.90
11540;DHT22;5826;54.756;9.192;2022-09-09T07:35:31;16.20;99.90
11540;DHT22;5826;54.756;9.192;2022-09-09T07:37:56;16.20;99.90
11540;DHT22;5826;54.756;9.192;2022-09-09T07:40:24;16.20;99.90
11540;DHT22;5826;54.756;9.192;2022-09-09T07:42:49;16.30;99.90
11540;DHT22;5826;54.756;9.192;2022-09-09T07:45:15;16.30;99.90
11540;DHT22;5826;54.756;9.192;2022-09-09T07:47:40;16.30;99.90
11540;DHT22;5826;54.756;9.192;2022-09-09T07:50:10;16.30;99.90
11540;DHT22;5826;54.756;9.192;2022-09-09T07:52:36;16.20;99.90
11540;DHT22;5826;54.756;9.192;2022-09-09T07:55:02;16.20;99.90
11540;DHT22;5826;54.756;9.192;2022-09-09T07:57:28;16.30;99.90
11540;DHT22;5826;54.756;9.192;2022-09-09T07:59:56;16.40;99.90
11540;DHT22;5826;54.756;9.192;2022-09-09T08:02:25;16.50;99.90
11540;DHT22;5826;54.756;9.192;2022-09-09T08:04:53;16.60;99.90
11540;DHT22;5826;54.756;9.192;2022-09-09T08:07:18;16.70;99.90
11540;DHT22;5826;54.756;9.192;2022-09-09T08:09:44;16.80;99.90
11540;DHT22;5826;54.756;9.192;2022-09-09T08:12:10;16.90;99.90
11540;DHT22;5826;54.756;9.192;2022-09-09T08:14:38;16.90;99.90
11540;DHT22;5826;54.756;9.192;2022-09-09T08:17:05;17.00;99.90
11540;DHT22;5826;54.756;9.192;2022-09-09T08:19:30;17.00;99.90
11540;DHT22;5826;54.756;9.192;2022-09-09T08:21:59;17.10;99.90
11540;DHT22;5826;54.756;9.192;2022-09-09T08:24:24;17.10;99.90
11540;DHT22;5826;54.756;9.192;2022-09-09T08:26:50;17.00;99.90
11540;DHT22;5826;54.756;9.192;2022-09-09T08:29:16;17.00;99.90
11540;DHT22;5826;54.756;9.192;2022-09-09T08:31:47;16.90;99.90
11540;DHT22;5826;54.756;9.192;2022-09-09T08:34:13;16.90;99.90
11540;DHT22;5826;54.756;9.192;2022-09-09T08:36:41;16.80;99.90
11540;DHT22;5826;54.756;9.192;2022-09-09T08:39:08;16.70;99.90
11540;DHT22;5826;54.756;9.192;2022-09-09T08:44:26;16.70;99.90
11540;DHT22;5826;54.756;9.192;2022-09-09T08:53:12;16.80;99.90
11540;DHT22;5826;54.756;9.192;2022-09-09T08:55:54;16.80;99.90
11540;DHT22;5826;54.756;9.192;2022-09-09T08:58:21;16.90;99.90
11540;DHT22;5826;54.756;9.192;2022-09-09T09:03:35;17.00;99.90
11540;DHT22;5826;54.756;9.192;2022-09-09T09:11:51;17.10;99.90
11540;DHT22;5826;54.756;9.192;2022-09-09T09:14:23;17.20;99.90
11540;DHT22;5826;54.756;9.192;2022-09-09T09:16:58;17.20;99.90
11540;DHT22;5826;54.756;9.192;2022-09-09T09:19:24;17.20;99.90
11540;DHT22;5826;54.756;9.192;2022-09-09T09:26:44;17.30;99.90
11540;DHT22;5826;54.756;9.192;2022-09-09T09:29:13;17.40;99.90
11540;DHT22;5826;54.756;9.192;2022-09-09T09:31:52;17.50;99.90
11540;DHT22;5826;54.756;9.192;2022-09-09T09:34:19;17.50;99.90
11540;DHT22;5826;54.756;9.192;2022-09-09T09:36:58;17.60;99.90
11540;DHT22;5826;54.756;9.192;2022-09-09T09:39:28;17.60;99.90
11540;DHT22;5826;54.756;9.192;2022-09-09T09:41:54;17.60;99.90
11540;DHT22;5826;54.756;9.192;2022-09-09T09:44:30;17.60;99.90
11540;DHT22;5826;54.756;9.192;2022-09-09T09:47:25;17.70;99.90
11540;DHT22;5826;54.756;9.192;2022-09-09T09:49:57;17.80;99.90
11540;DHT22;5826;54.756;9.192;2022-09-09T09:52:26;18.00;99.90
11540;DHT22;5826;54.756;9.192;2022-09-09T09:54:54;18.20;99.90
11540;DHT22;5826;54.756;9.192;2022-09-09T09:57:26;18.30;99.90
11540;DHT22;5826;54.756;9.192;2022-09-09T10:00:14;18.30;99.90
11540;DHT22;5826;54.756;9.192;2022-09-09T10:02:42;18.40;99.90
11540;DHT22;5826;54.756;9.192;2022-09-09T10:05:23;18.50;99.90
11540;DHT22;5826;54.756;9.192;2022-09-09T10:08:08;18.50;99.90
11540;DHT22;5826;54.756;9.192;2022-09-09T10:16:17;18.60;99.90
11540;DHT22;5826;54.756;9.192;2022-09-09T10:18:59;18.60;99.90
11540;DHT22;5826;54.756;9.192;2022-09-09T10:24:20;18.70;99.90
11540;DHT22;5826;54.756;9.192;2022-09-09T10:38:18;18.80;99.90
11540;DHT22;5826;54.756;9.192;2022-09-09T10:41:01;18.80;99.90
11540;DHT22;5826;54.756;9.192;2022-09-09T10:55:00;18.70;99.90
11540;DHT22;5826;54.756;9.192;2022-09-09T10:57:40;18.70;99.90
11540;DHT22;5826;54.756;9.192;2022-09-09T11:02:59;19.00;99.90
11540;DHT22;5826;54.756;9.192;2022-09-09T11:05:30;19.20;99.90
11540;DHT22;5826;54.756;9.192;2022-09-09T11:08:18;19.20;99.90
11540;DHT22;5826;54.756;9.192;2022-09-09T11:11:02;19.30;99.90
11540;DHT22;5826;54.756;9.192;2022-09-09T11:18:39;19.30;99.90
11540;DHT22;5826;54.756;9.192;2022-09-09T11:21:12;19.40;99.90
11540;DHT22;5826;54.756;9.192;2022-09-09T11:23:45;19.50;99.90
11540;DHT22;5826;54.756;9.192;2022-09-09T11:26:28;19.70;99.90
11540;DHT22;5826;54.756;9.192;2022-09-09T11:31:44;19.90;99.90
11540;DHT22;5826;54.756;9.192;2022-09-09T11:37:29;19.80;99.90
11540;DHT22;5826;54.756;9.192;2022-09-09T11:40:30;19.70;99.90
11540;DHT22;5826;54.756;9.192;2022-09-09T11:42:49;19.80;99.90
11540;DHT22;5826;54.756;9.192;2022-09-09T11:45:28;19.80;99.90
11540;DHT22;5826;54.756;9.192;2022-09-09T11:47:59;19.80;99.90
11540;DHT22;5826;54.756;9.192;2022-09-09T11:53:02;19.90;99.90
11540;DHT22;5826;54.756;9.192;2022-09-09T11:55:29;20.10;99.90
11540;DHT22;5826;54.756;9.192;2022-09-09T11:58:05;20.30;99.90
11540;DHT22;5826;54.756;9.192;2022-09-09T12:00:42;20.50;99.90
11540;DHT22;5826;54.756;9.192;2022-09-09T12:03:47;20.70;99.90
11540;DHT22;5826;54.756;9.192;2022-09-09T12:06:17;20.80;99.90
11540;DHT22;5826;54.756;9.192;2022-09-09T12:08:49;20.80;99.90
11540;DHT22;5826;54.756;9.192;2022-09-09T12:11:29;20.80;99.90
11540;DHT22;5826;54.756;9.192;2022-09-09T12:14:00;20.70;99.90
11540;DHT22;5826;54.756;9.192;2022-09-09T12:16:34;20.60;99.90
11540;DHT22;5826;54.756;9.192;2022-09-09T12:19:14;20.60;99.90
11540;DHT22;5826;54.756;9.192;2022-09-09T12:24:15;20.60;99.90
11540;DHT22;5826;54.756;9.192;2022-09-09T12:27:18;20.70;99.90
11540;DHT22;5826;54.756;9.192;2022-09-09T12:30:09;20.80;99.90
11540;DHT22;5826;54.756;9.192;2022-09-09T12:32:36;21.10;99.90
11540;DHT22;5826;54.756;9.192;2022-09-09T12:35:08;21.20;99.90
11540;DHT22;5826;54.756;9.192;2022-09-09T12:37:47;21.20;99.90
11540;DHT22;5826;54.756;9.192;2022-09-09T12:40:30;21.30;99.90
11540;DHT22;5826;54.756;9.192;2022-09-09T12:42:57;21.30;99.90
11540;DHT22;5826;54.756;9.192;2022-09-09T12:45:27;21.20;99.90
11540;DHT22;5826;54.756;9.192;2022-09-09T12:48:03;21.10;99.90
11540;DHT22;5826;54.756;9.192;2022-09-09T12:50:35;20.90;99.90
11540;DHT22;5826;54.756;9.192;2022-09-09T12:53:07;20.80;99.90
11540;DHT22;5826;54.756;9.192;2022-09-09T12:55:36;20.70;99.90
11540;DHT22;5826;54.756;9.192;2022-09-09T12:58:04;20.70;99.90
11540;DHT22;5826;54.756;9.192;2022-09-09T13:00:32;20.70;99.90
11540;DHT22;5826;54.756;9.192;2022-09-09T13:03:13;20.50;99.90
11540;DHT22;5826;54.756;9.192;2022-09-09T13:05:39;20.40;99.90
11540;DHT22;5826;54.756;9.192;2022-09-09T13:08:08;20.20;99.90
11540;DHT22;5826;54.756;9.192;2022-09-09T13:10:58;20.00;99.90
11540;DHT22;5826;54.756;9.192;2022-09-09T13:13:26;20.00;99.90
11540;DHT22;5826;54.756;9.192;2022-09-09T13:15:54;20.10;99.90
11540;DHT22;5826;54.756;9.192;2022-09-09T13:18:27;20.20;99.90
11540;DHT22;5826;54.756;9.192;2022-09-09T13:20:54;20.30;99.90
11540;DHT22;5826;54.756;9.192;2022-09-09T13:23:21;20.50;99.90
11540;DHT22;5826;54.756;9.192;2022-09-09T13:25:55;20.70;99.90
11540;DHT22;5826;54.756;9.192;2022-09-09T13:28:23;21.10;99.90
11540;DHT22;5826;54.756;9.192;2022-09-09T13:31:04;22.00;99.90
11540;DHT22;5826;54.756;9.192;2022-09-09T13:33:37;23.20;99.90
11540;DHT22;5826;54.756;9.192;2022-09-09T13:36:05;24.40;99.50
11540;DHT22;5826;54.756;9.192;2022-09-09T13:41:20;26.40;97.60
11540;DHT22;5826;54.756;9.192;2022-09-09T13:43:47;27.40;96.70
11540;DHT22;5826;54.756;9.192;2022-09-09T13:46:32;27.90;96.00
11540;DHT22;5826;54.756;9.192;2022-09-09T13:49:00;27.70;95.70
11540;DHT22;5826;54.756;9.192;2022-09-09T13:51:43;27.00;96.30
11540;DHT22;5826;54.756;9.192;2022-09-09T13:54:11;26.20;96.70
11540;DHT22;5826;54.756;9.192;2022-09-09T13:56:38;25.50;97.30
11540;DHT22;5826;54.756;9.192;2022-09-09T13:59:06;24.80;97.90
11540;DHT22;5826;54.756;9.192;2022-09-09T14:01:32;24.10;98.50
11540;DHT22;5826;54.756;9.192;2022-09-09T14:04:00;23.50;99.10
11540;DHT22;5826;54.756;9.192;2022-09-09T14:06:26;22.90;99.50
11540;DHT22;5826;54.756;9.192;2022-09-09T14:08:52;22.50;99.90
11540;DHT22;5826;54.756;9.192;2022-09-09T14:11:20;22.10;99.90
11540;DHT22;5826;54.756;9.192;2022-09-09T14:13:47;21.80;99.90
11540;DHT22;5826;54.756;9.192;2022-09-09T14:16:12;21.60;99.90
11540;DHT22;5826;54.756;9.192;2022-09-09T14:18:39;21.80;99.90
11540;DHT22;5826;54.756;9.192;2022-09-09T14:21:04;22.00;99.90
11540;DHT22;5826;54.756;9.192;2022-09-09T14:23:30;22.00;99.90
11540;DHT22;5826;54.756;9.192;2022-09-09T14:25:56;21.90;99.90
11540;DHT22;5826;54.756;9.192;2022-09-09T14:28:21;21.70;99.90
11540;DHT22;5826;54.756;9.192;2022-09-09T14:30:47;21.50;99.90
11540;DHT22;5826;54.756;9.192;2022-09-09T14:33:14;21.30;99.90
11540;DHT22;5826;54.756;9.192;2022-09-09T14:35:41;21.20;99.90
11540;DHT22;5826;54.756;9.192;2022-09-09T14:38:08;21.00;99.90
11540;DHT22;5826;54.756;9.192;2022-09-09T14:40:35;21.00;99.90
11540;DHT22;5826;54.756;9.192;2022-09-09T14:43:02;21.00;99.90
11540;DHT22;5826;54.756;9.192;2022-09-09T14:45:27;21.00;99.90
11540;DHT22;5826;54.756;9.192;2022-09-09T14:47:53;21.20;99.90
11540;DHT22;5826;54.756;9.192;2022-09-09T14:50:20;21.30;99.90
11540;DHT22;5826;54.756;9.192;2022-09-09T14:52:46;21.70;99.90
11540;DHT22;5826;54.756;9.192;2022-09-09T14:55:12;22.20;99.90
11540;DHT22;5826;54.756;9.192;2022-09-09T14:57:38;23.70;99.70
11540;DHT22;5826;54.756;9.192;2022-09-09T15:00:06;26.30;98.60
11540;DHT22;5826;54.756;9.192;2022-09-09T15:02:32;25.90;97.80
11540;DHT22;5826;54.756;9.192;2022-09-09T15:04:58;25.70;97.90
11540;DHT22;5826;54.756;9.192;2022-09-09T15:07:24;25.50;98.10
11540;DHT22;5826;54.756;9.192;2022-09-09T15:09:50;25.20;98.20
11540;DHT22;5826;54.756;9.192;2022-09-09T15:12:15;25.00;98.50
11540;DHT22;5826;54.756;9.192;2022-09-09T15:14:44;25.20;98.50
11540;DHT22;5826;54.756;9.192;2022-09-09T15:17:10;25.50;98.60
11540;DHT22;5826;54.756;9.192;2022-09-09T15:19:36;27.10;97.60
11540;DHT22;5826;54.756;9.192;2022-09-09T15:22:03;28.30;96.40
11540;DHT22;5826;54.756;9.192;2022-09-09T15:24:31;28.20;96.40
11540;DHT22;5826;54.756;9.192;2022-09-09T15:26:56;27.70;96.70
11540;DHT22;5826;54.756;9.192;2022-09-09T15:29:23;27.40;96.90
11540;DHT22;5826;54.756;9.192;2022-09-09T15:31:48;27.00;97.20
11540;DHT22;5826;54.756;9.192;2022-09-09T15:34:14;26.60;97.40
11540;DHT22;5826;54.756;9.192;2022-09-09T15:36:42;26.60;98.20
11540;DHT22;5826;54.756;9.192;2022-09-09T15:39:12;28.20;97.20
11540;DHT22;5826;54.756;9.192;2022-09-09T15:41:41;30.80;95.40
11540;DHT22;5826;54.756;9.192;2022-09-09T15:44:08;31.40;95.10
11540;DHT22;5826;54.756;9.192;2022-09-09T15:46:39;30.80;95.40
11540;DHT22;5826;54.756;9.192;2022-09-09T15:49:07;29.70;96.30
11540;DHT22;5826;54.756;9.192;2022-09-09T15:51:35;28.80;96.60
11540;DHT22;5826;54.756;9.192;2022-09-09T15:54:00;28.00;97.40
11540;DHT22;5826;54.756;9.192;2022-09-09T15:56:27;27.20;97.70
11540;DHT22;5826;54.756;9.192;2022-09-09T15:58:54;26.60;98.30
11540;DHT22;5826;54.756;9.192;2022-09-09T16:01:20;26.00;98.60
11540;DHT22;5826;54.756;9.192;2022-09-09T16:03:46;25.60;98.80
11540;DHT22;5826;54.756;9.192;2022-09-09T16:06:13;25.40;99.00
11540;DHT22;5826;54.756;9.192;2022-09-09T16:08:41;26.70;98.70
11540;DHT22;5826;54.756;9.192;2022-09-09T16:11:10;27.60;97.60
11540;DHT22;5826;54.756;9.192;2022-09-09T16:13:36;28.20;97.10
11540;DHT22;5826;54.756;9.192;2022-09-09T16:16:03;28.90;96.50
11540;DHT22;5826;54.756;9.192;2022-09-09T16:18:38;29.40;96.20
11540;DHT22;5826;54.756;9.192;2022-09-09T16:21:04;29.10;96.20
11540;DHT22;5826;54.756;9.192;2022-09-09T16:23:31;28.30;96.60
11540;DHT22;5826;54.756;9.192;2022-09-09T16:25:58;27.20;97.40
11540;DHT22;5826;54.756;9.192;2022-09-09T16:28:24;26.00;98.00
11540;DHT22;5826;54.756;9.192;2022-09-09T16:30:49;25.00;98.70
11540;DHT22;5826;54.756;9.192;2022-09-09T16:33:15;24.00;99.40
11540;DHT22;5826;54.756;9.192;2022-09-09T16:35:41;23.20;99.90
11540;DHT22;5826;54.756;9.192;2022-09-09T16:38:07;22.50;99.90
11540;DHT22;5826;54.756;9.192;2022-09-09T16:40:39;22.00;99.90
11540;DHT22;5826;54.756;9.192;2022-09-09T16:43:06;21.40;99.90
11540;DHT22;5826;54.756;9.192;2022-09-09T16:45:32;21.10;99.90
11540;DHT22;5826;54.756;9.192;2022-09-09T16:47:59;20.80;99.90
11540;DHT22;5826;54.756;9.192;2022-09-09T16:50:25;20.60;99.90
11540;DHT22;5826;54.756;9.192;2022-09-09T16:52:52;20.30;99.90
11540;DHT22;5826;54.756;9.192;2022-09-09T16:55:18;20.10;99.90
11540;DHT22;5826;54.756;9.192;2022-09-09T16:57:46;19.90;99.90
11540;DHT22;5826;54.756;9.192;2022-09-09T17:00:14;19.70;99.90
11540;DHT22;5826;54.756;9.192;2022-09-09T17:02:40;19.50;99.90
11540;DHT22;5826;54.756;9.192;2022-09-09T17:05:06;19.30;99.90
11540;DHT22;5826;54.756;9.192;2022-09-09T17:07:31;19.20;99.90
11540;DHT22;5826;54.756;9.192;2022-09-09T17:09:57;19.00;99.90
11540;DHT22;5826;54.756;9.192;2022-09-09T17:12:23;18.80;99.90
11540;DHT22;5826;54.756;9.192;2022-09-09T17:14:49;18.60;99.90
11540;DHT22;5826;54.756;9.192;2022-09-09T17:17:14;18.40;99.90
11540;DHT22;5826;54.756;9.192;2022-09-09T17:19:40;18.20;99.90
11540;DHT22;5826;54.756;9.192;2022-09-09T17:22:06;18.10;99.90
11540;DHT22;5826;54.756;9.192;2022-09-09T17:24:32;18.00;99.90
11540;DHT22;5826;54.756;9.192;2022-09-09T17:26:59;17.70;99.90
11540;DHT22;5826;54.756;9.192;2022-09-09T17:29:26;17.80;99.90
11540;DHT22;5826;54.756;9.192;2022-09-09T17:31:52;17.70;99.90
11540;DHT22;5826;54.756;9.192;2022-09-09T17:34:18;17.60;99.90
11540;DHT22;5826;54.756;9.192;2022-09-09T17:36:44;17.50;99.90
11540;DHT22;5826;54.756;9.192;2022-09-09T17:39:09;17.40;99.90
11540;DHT22;5826;54.756;9.192;2022-09-09T17:41:36;17.40;99.90
11540;DHT22;5826;54.756;9.192;2022-09-09T17:44:03;17.30;99.90
11540;DHT22;5826;54.756;9.192;2022-09-09T17:46:31;17.30;99.90
11540;DHT22;5826;54.756;9.192;2022-09-09T17:49:00;17.30;99.90
11540;DHT22;5826;54.756;9.192;2022-09-09T17:51:27;17.20;99.90
11540;DHT22;5826;54.756;9.192;2022-09-09T17:53:57;17.20;99.90
11540;DHT22;5826;54.756;9.192;2022-09-09T17:56:28;17.20;99.90